sensor_id;sensor_type;location;lat;lon;timestamp;temperature;humidity
8248;DHT22;4164;49.844;8.830;2023-06-10T00:02:15;16.70;99.90
8248;DHT22;4164;49.844;8.830;2023-06-10T00:04:42;16.60;99.90
8248;DHT22;4164;49.844;8.830;2023-06-10T00:07:08;16.70;99.90
8248;DHT22;4164;49.844;8.830;2023-06-10T00:09:37;16.60;99.90
8248;DHT22;4164;49.844;8.830;2023-06-10T00:12:04;16.60;99.90
8248;DHT22;4164;49.844;8.830;2023-06-10T00:14:30;16.70;1.00
8248;DHT22;4164;49.844;8.830;2023-06-10T00:16:56;16.70;99.90
8248;DHT22;4164;49.844;8.830;2023-06-10T00:19:23;16.50;99.90
8248;DHT22;4164;49.844;8.830;2023-06-10T00:21:51;16.40;1.00
8248;DHT22;4164;49.844;8.830;2023-06-10T00:24:17;16.50;99.90
8248;DHT22;4164;49.844;8.830;2023-06-10T00:26:43;16.60;99.90
8248;DHT22;4164;49.844;8.830;2023-06-10T00:29:09;16.50;99.90
8248;DHT22;4164;49.844;8.830;2023-06-10T00:31:36;16.50;99.90
8248;DHT22;4164;49.844;8.830;2023-06-10T00:34:02;16.30;99.90
8248;DHT22;4164;49.844;8.830;2023-06-10T00:36:28;16.40;99.90
8248;DHT22;4164;49.844;8.830;2023-06-10T00:38:54;16.20;99.90
8248;DHT22;4164;49.844;8.830;2023-06-10T00:41:19;16.00;1.00
8248;DHT22;4164;49.844;8.830;2023-06-10T00:43:45;16.10;1.00
8248;DHT22;4164;49.844;8.830;2023-06-10T00:46:11;16.20;99.90
8248;DHT22;4164;49.844;8.830;2023-06-10T00:48:38;16.20;99.90
8248;DHT22;4164;49.844;8.830;2023-06-10T00:51:05;16.10;99.90
8248;DHT22;4164;49.844;8.830;2023-06-10T00:53:31;15.90;1.00
8248;DHT22;4164;49.844;8.830;2023-06-10T00:55:57;15.90;99.90
8248;DHT22;4164;49.844;8.830;2023-06-10T00:58:23;15.70;1.00
8248;DHT22;4164;49.844;8.830;2023-06-10T01:00:50;15.80;1.00
8248;DHT22;4164;49.844;8.830;2023-06-10T01:03:16;15.90;99.90
8248;DHT22;4164;49.844;8.830;2023-06-10T01:05:43;15.70;1.00
8248;DHT22;4164;49.844;8.830;2023-06-10T01:08:14;15.70;1.00
8248;DHT22;4164;49.844;8.830;2023-06-10T01:11:01;15.50;1.00
8248;DHT22;4164;49.844;8.830;2023-06-10T01:13:29;15.40;1.00
8248;DHT22;4164;49.844;8.830;2023-06-10T01:15:57;15.60;1.00
8248;DHT22;4164;49.844;8.830;2023-06-10T01:18:23;15.70;1.00
8248;DHT22;4164;49.844;8.830;2023-06-10T01:20:56;15.70;99.90
8248;DHT22;4164;49.844;8.830;2023-06-10T01:23:21;15.70;99.90
8248;DHT22;4164;49.844;8.830;2023-06-10T01:25:59;15.60;1.00
8248;DHT22;4164;49.844;8.830;2023-06-10T01:28:31;15.70;1.00
8248;DHT22;4164;49.844;8.830;2023-06-10T01:33:29;15.60;99.90
8248;DHT22;4164;49.844;8.830;2023-06-10T01:35:57;15.50;1.00
8248;DHT22;4164;49.844;8.830;2023-06-10T01:38:26;15.60;1.00
8248;DHT22;4164;49.844;8.830;2023-06-10T01:40:53;15.30;1.00
8248;DHT22;4164;49.844;8.830;2023-06-10T01:43:21;15.40;1.00
8248;DHT22;4164;49.844;8.830;2023-06-10T01:45:46;15.50;99.90
8248;DHT22;4164;49.844;8.830;2023-06-10T01:48:12;15.40;1.00
8248;DHT22;4164;49.844;8.830;2023-06-10T01:50:38;15.40;1.00
8248;DHT22;4164;49.844;8.830;2023-06-10T01:53:04;15.40;1.00
8248;DHT22;4164;49.844;8.830;2023-06-10T01:55:31;15.40;1.00
8248;DHT22;4164;49.844;8.830;2023-06-10T01:57:56;15.40;1.00
8248;DHT22;4164;49.844;8.830;2023-06-10T02:00:22;15.40;1.00
8248;DHT22;4164;49.844;8.830;2023-06-10T02:02:47;15.40;1.00
8248;DHT22;4164;49.844;8.830;2023-06-10T02:05:13;15.40;1.00
8248;DHT22;4164;49.844;8.830;2023-06-10T02:07:38;15.40;1.00
8248;DHT22;4164;49.844;8.830;2023-06-10T02:10:05;15.30;1.00
8248;DHT22;4164;49.844;8.830;2023-06-10T02:12:30;15.30;1.00
8248;DHT22;4164;49.844;8.830;2023-06-10T02:14:56;15.30;1.00
8248;DHT22;4164;49.844;8.830;2023-06-10T02:17:22;15.30;1.00
8248;DHT22;4164;49.844;8.830;2023-06-10T02:19:48;15.30;1.00
8248;DHT22;4164;49.844;8.830;2023-06-10T02:22:20;15.20;1.00
8248;DHT22;4164;49.844;8.830;2023-06-10T02:24:46;15.10;1.00
8248;DHT22;4164;49.844;8.830;2023-06-10T02:27:11;15.00;1.00
8248;DHT22;4164;49.844;8.830;2023-06-10T02:29:37;14.60;1.00
8248;DHT22;4164;49.844;8.830;2023-06-10T02:32:03;14.40;1.00
8248;DHT22;4164;49.844;8.830;2023-06-10T02:34:29;14.50;1.00
8248;DHT22;4164;49.844;8.830;2023-06-10T02:36:54;14.70;1.00
8248;DHT22;4164;49.844;8.830;2023-06-10T02:39:21;14.70;1.00
8248;DHT22;4164;49.844;8.830;2023-06-10T02:41:47;14.70;1.00
8248;DHT22;4164;49.844;8.830;2023-06-10T02:44:12;14.60;1.00
8248;DHT22;4164;49.844;8.830;2023-06-10T02:46:38;14.80;1.00
8248;DHT22;4164;49.844;8.830;2023-06-10T02:49:03;14.80;1.00
8248;DHT22;4164;49.844;8.830;2023-06-10T02:51:29;14.80;1.00
8248;DHT22;4164;49.844;8.830;2023-06-10T02:53:54;14.80;1.00
8248;DHT22;4164;49.844;8.830;2023-06-10T02:56:20;14.50;1.00
8248;DHT22;4164;49.844;8.830;2023-06-10T02:58:47;14.50;1.00
8248;DHT22;4164;49.844;8.830;2023-06-10T03:01:13;14.60;1.00
8248;DHT22;4164;49.844;8.830;2023-06-10T03:03:40;14.60;1.00
8248;DHT22;4164;49.844;8.830;2023-06-10T03:06:09;14.50;1.00
8248;DHT22;4164;49.844;8.830;2023-06-10T03:08:36;14.30;1.00
8248;DHT22;4164;49.844;8.830;2023-06-10T03:11:01;14.10;1.00
8248;DHT22;4164;49.844;8.830;2023-06-10T03:13:27;14.20;1.00
8248;DHT22;4164;49.844;8.830;2023-06-10T03:15:53;14.20;1.00
8248;DHT22;4164;49.844;8.830;2023-06-10T03:18:18;13.80;1.00
8248;DHT22;4164;49.844;8.830;2023-06-10T03:20:44;13.90;1.00
8248;DHT22;4164;49.844;8.830;2023-06-10T03:23:10;14.10;1.00
8248;DHT22;4164;49.844;8.830;2023-06-10T03:25:35;14.30;1.00
8248;DHT22;4164;49.844;8.830;2023-06-10T03:28:01;14.30;1.00
8248;DHT22;4164;49.844;8.830;2023-06-10T03:30:27;14.30;1.00
8248;DHT22;4164;49.844;8.830;2023-06-10T03:32:53;14.20;1.00
8248;DHT22;4164;49.844;8.830;2023-06-10T03:35:18;14.20;1.00
8248;DHT22;4164;49.844;8.830;2023-06-10T03:37:44;14.00;1.00
8248;DHT22;4164;49.844;8.830;2023-06-10T03:40:10;14.20;1.00
8248;DHT22;4164;49.844;8.830;2023-06-10T03:42:35;14.10;1.00
8248;DHT22;4164;49.844;8.830;2023-06-10T03:45:02;13.90;1.00
8248;DHT22;4164;49.844;8.830;2023-06-10T03:47:36;13.80;1.00
8248;DHT22;4164;49.844;8.830;2023-06-10T03:50:06;13.90;1.00
8248;DHT22;4164;49.844;8.830;2023-06-10T03:52:32;14.00;1.00
8248;DHT22;4164;49.844;8.830;2023-06-10T03:54:57;14.20;1.00
8248;DHT22;4164;49.844;8.830;2023-06-10T03:57:23;14.20;1.00
8248;DHT22;4164;49.844;8.830;2023-06-10T03:59:48;14.40;1.00
8248;DHT22;4164;49.844;8.830;2023-06-10T04:02:14;14.50;1.00
8248;DHT22;4164;49.844;8.830;2023-06-10T04:04:40;14.30;1.00
8248;DHT22;4164;49.844;8.830;2023-06-10T04:07:06;14.50;1.00
8248;DHT22;4164;49.844;8.830;2023-06-10T04:09:33;14.70;1.00
8248;DHT22;4164;49.844;8.830;2023-06-10T04:11:59;14.80;1.00
8248;DHT22;4164;49.844;8.830;2023-06-10T04:14:24;14.70;1.00
8248;DHT22;4164;49.844;8.830;2023-06-10T04:16:50;14.70;1.00
8248;DHT22;4164;49.844;8.830;2023-06-10T04:19:15;14.80;1.00
8248;DHT22;4164;49.844;8.830;2023-06-10T04:21:42;15.00;1.00
8248;DHT22;4164;49.844;8.830;2023-06-10T04:24:07;15.00;1.00
8248;DHT22;4164;49.844;8.830;2023-06-10T04:26:35;15.00;99.90
8248;DHT22;4164;49.844;8.830;2023-06-10T04:29:01;15.10;99.90
8248;DHT22;4164;49.844;8.830;2023-06-10T04:31:26;15.10;99.90
8248;DHT22;4164;49.844;8.830;2023-06-10T04:33:52;15.00;1.00
8248;DHT22;4164;49.844;8.830;2023-06-10T04:36:17;15.10;1.00
8248;DHT22;4164;49.844;8.830;2023-06-10T04:38:43;15.20;1.00
8248;DHT22;4164;49.844;8.830;2023-06-10T04:41:08;14.80;1.00
8248;DHT22;4164;49.844;8.830;2023-06-10T04:43:34;14.80;1.00
8248;DHT22;4164;49.844;8.830;2023-06-10T04:45:59;15.10;1.00
8248;DHT22;4164;49.844;8.830;2023-06-10T04:48:25;15.00;1.00
8248;DHT22;4164;49.844;8.830;2023-06-10T04:50:51;15.20;1.00
8248;DHT22;4164;49.844;8.830;2023-06-10T04:53:17;15.00;1.00
8248;DHT22;4164;49.844;8.830;2023-06-10T04:55:42;15.10;1.00
8248;DHT22;4164;49.844;8.830;2023-06-10T04:58:09;15.50;1.00
8248;DHT22;4164;49.844;8.830;2023-06-10T05:00:34;15.80;99.90
8248;DHT22;4164;49.844;8.830;2023-06-10T05:03:00;15.60;99.90
8248;DHT22;4164;49.844;8.830;2023-06-10T05:05:26;15.70;99.90
8248;DHT22;4164;49.844;8.830;2023-06-10T05:07:51;15.80;1.00
8248;DHT22;4164;49.844;8.830;2023-06-10T05:10:17;16.00;1.00
8248;DHT22;4164;49.844;8.830;2023-06-10T05:12:42;16.20;99.90
8248;DHT22;4164;49.844;8.830;2023-06-10T05:15:08;16.50;99.90
8248;DHT22;4164;49.844;8.830;2023-06-10T05:17:34;16.60;99.90
8248;DHT22;4164;49.844;8.830;2023-06-10T05:20:03;16.90;99.90
8248;DHT22;4164;49.844;8.830;2023-06-10T05:22:29;17.00;1.00
8248;DHT22;4164;49.844;8.830;2023-06-10T05:24:54;17.00;99.90
8248;DHT22;4164;49.844;8.830;2023-06-10T05:27:20;17.20;99.90
8248;DHT22;4164;49.844;8.830;2023-06-10T05:29:46;17.20;99.90
8248;DHT22;4164;49.844;8.830;2023-06-10T05:32:12;17.30;99.90
8248;DHT22;4164;49.844;8.830;2023-06-10T05:34:37;17.40;2.50
8248;DHT22;4164;49.844;8.830;2023-06-10T05:37:03;17.60;30.50
8248;DHT22;4164;49.844;8.830;2023-06-10T05:39:29;17.80;1.00
8248;DHT22;4164;49.844;8.830;2023-06-10T05:41:55;17.90;1.00
8248;DHT22;4164;49.844;8.830;2023-06-10T05:44:20;18.00;1.00
8248;DHT22;4164;49.844;8.830;2023-06-10T05:46:46;17.90;1.00
8248;DHT22;4164;49.844;8.830;2023-06-10T05:49:11;17.80;1.00
8248;DHT22;4164;49.844;8.830;2023-06-10T05:51:37;18.00;1.00
8248;DHT22;4164;49.844;8.830;2023-06-10T05:54:03;18.30;99.90
8248;DHT22;4164;49.844;8.830;2023-06-10T05:56:29;18.50;1.00
8248;DHT22;4164;49.844;8.830;2023-06-10T05:58:55;18.60;1.00
8248;DHT22;4164;49.844;8.830;2023-06-10T06:01:21;18.60;9.80
8248;DHT22;4164;49.844;8.830;2023-06-10T06:03:46;18.60;64.30
8248;DHT22;4164;49.844;8.830;2023-06-10T06:06:12;18.70;1.00
8248;DHT22;4164;49.844;8.830;2023-06-10T06:08:37;18.80;1.00
8248;DHT22;4164;49.844;8.830;2023-06-10T06:11:03;19.00;1.00
8248;DHT22;4164;49.844;8.830;2023-06-10T06:13:28;19.20;99.90
8248;DHT22;4164;49.844;8.830;2023-06-10T06:15:54;19.20;1.00
8248;DHT22;4164;49.844;8.830;2023-06-10T06:18:20;19.30;1.00
8248;DHT22;4164;49.844;8.830;2023-06-10T06:20:45;19.70;99.90
8248;DHT22;4164;49.844;8.830;2023-06-10T06:23:11;19.60;1.00
8248;DHT22;4164;49.844;8.830;2023-06-10T06:25:37;19.70;99.90
8248;DHT22;4164;49.844;8.830;2023-06-10T06:28:07;19.90;99.90
8248;DHT22;4164;49.844;8.830;2023-06-10T06:30:34;20.10;1.00
8248;DHT22;4164;49.844;8.830;2023-06-10T06:33:00;20.30;99.90
8248;DHT22;4164;49.844;8.830;2023-06-10T06:35:26;20.40;1.00
8248;DHT22;4164;49.844;8.830;2023-06-10T06:37:52;20.40;1.00
8248;DHT22;4164;49.844;8.830;2023-06-10T06:40:17;20.50;99.90
8248;DHT22;4164;49.844;8.830;2023-06-10T06:42:43;20.50;99.90
8248;DHT22;4164;49.844;8.830;2023-06-10T06:45:09;20.50;13.60
8248;DHT22;4164;49.844;8.830;2023-06-10T06:47:34;20.70;46.40
8248;DHT22;4164;49.844;8.830;2023-06-10T06:50:00;20.90;12.70
8248;DHT22;4164;49.844;8.830;2023-06-10T06:52:25;21.10;38.40
8248;DHT22;4164;49.844;8.830;2023-06-10T06:54:51;21.30;99.90
8248;DHT22;4164;49.844;8.830;2023-06-10T06:57:17;21.50;1.00
8248;DHT22;4164;49.844;8.830;2023-06-10T06:59:42;21.70;1.00
8248;DHT22;4164;49.844;8.830;2023-06-10T07:02:08;21.80;1.00
8248;DHT22;4164;49.844;8.830;2023-06-10T07:04:33;21.90;1.00
8248;DHT22;4164;49.844;8.830;2023-06-10T07:06:59;22.10;1.00
8248;DHT22;4164;49.844;8.830;2023-06-10T07:09:24;22.30;1.00
8248;DHT22;4164;49.844;8.830;2023-06-10T07:11:50;22.20;99.90
8248;DHT22;4164;49.844;8.830;2023-06-10T07:14:15;22.30;99.90
8248;DHT22;4164;49.844;8.830;2023-06-10T07:16:41;22.20;99.90
8248;DHT22;4164;49.844;8.830;2023-06-10T07:19:06;22.40;99.90
8248;DHT22;4164;49.844;8.830;2023-06-10T07:21:32;22.40;40.60
8248;DHT22;4164;49.844;8.830;2023-06-10T07:23:59;22.00;29.40
8248;DHT22;4164;49.844;8.830;2023-06-10T07:26:24;22.20;33.90
8248;DHT22;4164;49.844;8.830;2023-06-10T07:28:51;22.10;32.70
8248;DHT22;4164;49.844;8.830;2023-06-10T07:31:17;22.40;99.90
8248;DHT22;4164;49.844;8.830;2023-06-10T07:33:42;22.80;1.00
8248;DHT22;4164;49.844;8.830;2023-06-10T07:36:09;23.00;1.00
8248;DHT22;4164;49.844;8.830;2023-06-10T07:38:35;22.80;1.00
8248;DHT22;4164;49.844;8.830;2023-06-10T07:41:00;22.90;1.00
8248;DHT22;4164;49.844;8.830;2023-06-10T07:43:26;23.00;1.00
8248;DHT22;4164;49.844;8.830;2023-06-10T07:45:52;23.20;1.00
8248;DHT22;4164;49.844;8.830;2023-06-10T07:48:18;23.40;1.00
8248;DHT22;4164;49.844;8.830;2023-06-10T07:50:43;23.50;1.00
8248;DHT22;4164;49.844;8.830;2023-06-10T07:53:09;23.60;1.00
8248;DHT22;4164;49.844;8.830;2023-06-10T07:55:34;23.70;1.00
8248;DHT22;4164;49.844;8.830;2023-06-10T07:58:00;23.70;1.00
8248;DHT22;4164;49.844;8.830;2023-06-10T08:00:26;23.80;1.00
8248;DHT22;4164;49.844;8.830;2023-06-10T08:02:51;23.80;1.00
8248;DHT22;4164;49.844;8.830;2023-06-10T08:05:17;23.90;1.00
8248;DHT22;4164;49.844;8.830;2023-06-10T08:07:43;24.00;1.00
8248;DHT22;4164;49.844;8.830;2023-06-10T08:10:08;24.10;1.00
8248;DHT22;4164;49.844;8.830;2023-06-10T08:12:34;24.20;1.00
8248;DHT22;4164;49.844;8.830;2023-06-10T08:15:00;24.30;1.00
8248;DHT22;4164;49.844;8.830;2023-06-10T08:17:26;24.30;1.00
8248;DHT22;4164;49.844;8.830;2023-06-10T08:19:51;24.40;1.00
8248;DHT22;4164;49.844;8.830;2023-06-10T08:22:17;24.60;1.00
8248;DHT22;4164;49.844;8.830;2023-06-10T08:24:43;24.70;1.00
8248;DHT22;4164;49.844;8.830;2023-06-10T08:27:08;24.80;99.90
8248;DHT22;4164;49.844;8.830;2023-06-10T08:29:34;25.00;99.90
8248;DHT22;4164;49.844;8.830;2023-06-10T08:31:59;25.10;99.90
8248;DHT22;4164;49.844;8.830;2023-06-10T08:34:25;25.10;99.90
8248;DHT22;4164;49.844;8.830;2023-06-10T08:36:50;25.10;99.90
8248;DHT22;4164;49.844;8.830;2023-06-10T08:39:21;25.20;99.90
8248;DHT22;4164;49.844;8.830;2023-06-10T08:42:11;25.30;99.90
8248;DHT22;4164;49.844;8.830;2023-06-10T08:44:40;25.50;99.90
8248;DHT22;4164;49.844;8.830;2023-06-10T08:47:13;25.70;99.90
8248;DHT22;4164;49.844;8.830;2023-06-10T08:49:43;25.70;99.90
8248;DHT22;4164;49.844;8.830;2023-06-10T08:52:17;25.80;99.90
8248;DHT22;4164;49.844;8.830;2023-06-10T08:54:49;25.90;99.90
8248;DHT22;4164;49.844;8.830;2023-06-10T08:57:17;26.10;99.90
8248;DHT22;4164;49.844;8.830;2023-06-10T08:59:46;26.10;99.90
8248;DHT22;4164;49.844;8.830;2023-06-10T09:02:11;26.20;99.90
8248;DHT22;4164;49.844;8.830;2023-06-10T09:04:38;26.20;99.90
8248;DHT22;4164;49.844;8.830;2023-06-10T09:07:05;26.30;99.90
8248;DHT22;4164;49.844;8.830;2023-06-10T09:09:31;26.60;99.90
8248;DHT22;4164;49.844;8.830;2023-06-10T09:11:58;26.60;99.90
8248;DHT22;4164;49.844;8.830;2023-06-10T09:14:23;26.60;99.90
8248;DHT22;4164;49.844;8.830;2023-06-10T09:16:49;26.40;99.90
8248;DHT22;4164;49.844;8.830;2023-06-10T09:19:16;26.70;99.90
8248;DHT22;4164;49.844;8.830;2023-06-10T09:21:42;26.80;99.90
8248;DHT22;4164;49.844;8.830;2023-06-10T09:24:07;26.90;99.90
8248;DHT22;4164;49.844;8.830;2023-06-10T09:26:33;27.10;99.90
8248;DHT22;4164;49.844;8.830;2023-06-10T09:29:06;27.10;99.90
8248;DHT22;4164;49.844;8.830;2023-06-10T09:31:35;27.30;99.90
8248;DHT22;4164;49.844;8.830;2023-06-10T09:34:20;27.40;99.90
8248;DHT22;4164;49.844;8.830;2023-06-10T09:36:50;27.50;99.90
8248;DHT22;4164;49.844;8.830;2023-06-10T09:39:17;27.60;99.90
8248;DHT22;4164;49.844;8.830;2023-06-10T09:41:44;27.70;99.90
8248;DHT22;4164;49.844;8.830;2023-06-10T09:44:19;27.90;99.90
8248;DHT22;4164;49.844;8.830;2023-06-10T09:46:47;27.90;99.90
8248;DHT22;4164;49.844;8.830;2023-06-10T09:49:13;28.00;99.90
8248;DHT22;4164;49.844;8.830;2023-06-10T09:51:55;28.10;99.90
8248;DHT22;4164;49.844;8.830;2023-06-10T09:54:21;28.30;99.90
8248;DHT22;4164;49.844;8.830;2023-06-10T09:56:51;28.50;99.90
8248;DHT22;4164;49.844;8.830;2023-06-10T09:59:28;28.70;99.90
8248;DHT22;4164;49.844;8.830;2023-06-10T10:01:55;28.80;99.90
8248;DHT22;4164;49.844;8.830;2023-06-10T10:04:25;28.80;99.90
8248;DHT22;4164;49.844;8.830;2023-06-10T10:06:51;29.10;99.90
8248;DHT22;4164;49.844;8.830;2023-06-10T10:09:16;29.00;99.90
8248;DHT22;4164;49.844;8.830;2023-06-10T10:11:43;29.10;99.90
8248;DHT22;4164;49.844;8.830;2023-06-10T10:14:10;29.30;99.90
8248;DHT22;4164;49.844;8.830;2023-06-10T10:16:39;29.50;99.90
8248;DHT22;4164;49.844;8.830;2023-06-10T10:19:28;29.50;99.90
8248;DHT22;4164;49.844;8.830;2023-06-10T10:22:08;29.70;99.90
8248;DHT22;4164;49.844;8.830;2023-06-10T10:24:45;29.90;99.90
8248;DHT22;4164;49.844;8.830;2023-06-10T10:27:18;30.00;99.90
8248;DHT22;4164;49.844;8.830;2023-06-10T10:29:47;30.10;99.90
8248;DHT22;4164;49.844;8.830;2023-06-10T10:32:14;30.20;99.90
8248;DHT22;4164;49.844;8.830;2023-06-10T10:37:09;30.10;99.90
8248;DHT22;4164;49.844;8.830;2023-06-10T10:39:36;30.30;99.90
8248;DHT22;4164;49.844;8.830;2023-06-10T10:42:03;30.50;99.90
8248;DHT22;4164;49.844;8.830;2023-06-10T10:44:30;30.50;99.90
8248;DHT22;4164;49.844;8.830;2023-06-10T10:46:56;30.70;99.90
8248;DHT22;4164;49.844;8.830;2023-06-10T10:49:27;30.70;99.90
8248;DHT22;4164;49.844;8.830;2023-06-10T10:51:58;30.70;99.90
8248;DHT22;4164;49.844;8.830;2023-06-10T10:54:34;30.70;99.90
8248;DHT22;4164;49.844;8.830;2023-06-10T10:57:10;30.60;99.90
8248;DHT22;4164;49.844;8.830;2023-06-10T11:02:18;31.20;99.90
8248;DHT22;4164;49.844;8.830;2023-06-10T11:04:48;31.20;99.90
8248;DHT22;4164;49.844;8.830;2023-06-10T11:07:14;31.40;99.90
8248;DHT22;4164;49.844;8.830;2023-06-10T11:10:08;31.40;99.90
8248;DHT22;4164;49.844;8.830;2023-06-10T11:12:50;31.80;99.90
8248;DHT22;4164;49.844;8.830;2023-06-10T11:15:22;31.60;99.90
8248;DHT22;4164;49.844;8.830;2023-06-10T11:18:11;31.50;99.90
8248;DHT22;4164;49.844;8.830;2023-06-10T11:34:02;32.80;99.90
8248;DHT22;4164;49.844;8.830;2023-06-10T11:36:33;33.20;99.90
8248;DHT22;4164;49.844;8.830;2023-06-10T11:39:00;35.10;95.60
8248;DHT22;4164;49.844;8.830;2023-06-10T11:41:28;35.90;90.00
8248;DHT22;4164;49.844;8.830;2023-06-10T11:43:55;35.80;86.70
8248;DHT22;4164;49.844;8.830;2023-06-10T11:46:24;35.40;83.40
8248;DHT22;4164;49.844;8.830;2023-06-10T11:48:54;35.60;70.80
8248;DHT22;4164;49.844;8.830;2023-06-10T11:51:19;36.80;78.40
8248;DHT22;4164;49.844;8.830;2023-06-10T11:53:49;38.30;55.30
8248;DHT22;4164;49.844;8.830;2023-06-10T11:56:26;39.40;52.70
8248;DHT22;4164;49.844;8.830;2023-06-10T11:58:57;38.40;33.90
8248;DHT22;4164;49.844;8.830;2023-06-10T12:01:24;38.90;29.50
8248;DHT22;4164;49.844;8.830;2023-06-10T12:04:00;39.00;27.20
8248;DHT22;4164;49.844;8.830;2023-06-10T12:06:26;38.10;19.00
8248;DHT22;4164;49.844;8.830;2023-06-10T12:08:56;40.10;21.80
8248;DHT22;4164;49.844;8.830;2023-06-10T12:11:21;40.40;18.00
8248;DHT22;4164;49.844;8.830;2023-06-10T12:13:49;40.50;12.00
8248;DHT22;4164;49.844;8.830;2023-06-10T12:16:15;41.40;8.80
8248;DHT22;4164;49.844;8.830;2023-06-10T12:18:43;41.00;2.70
8248;DHT22;4164;49.844;8.830;2023-06-10T12:21:17;40.60;1.00
8248;DHT22;4164;49.844;8.830;2023-06-10T12:24:03;41.90;1.00
8248;DHT22;4164;49.844;8.830;2023-06-10T12:26:36;43.00;1.00
8248;DHT22;4164;49.844;8.830;2023-06-10T12:29:15;41.90;1.00
8248;DHT22;4164;49.844;8.830;2023-06-10T12:32:00;41.20;1.00
8248;DHT22;4164;49.844;8.830;2023-06-10T12:36:54;40.00;1.00
8248;DHT22;4164;49.844;8.830;2023-06-10T12:39:20;39.50;1.00
8248;DHT22;4164;49.844;8.830;2023-06-10T12:41:50;40.30;1.00
8248;DHT22;4164;49.844;8.830;2023-06-10T12:44:16;41.00;1.00
8248;DHT22;4164;49.844;8.830;2023-06-10T12:46:41;40.20;1.00
8248;DHT22;4164;49.844;8.830;2023-06-10T12:49:07;41.20;1.00
8248;DHT22;4164;49.844;8.830;2023-06-10T12:51:33;42.00;1.00
8248;DHT22;4164;49.844;8.830;2023-06-10T12:53:59;42.40;1.00
8248;DHT22;4164;49.844;8.830;2023-06-10T12:56:25;41.30;1.00
8248;DHT22;4164;49.844;8.830;2023-06-10T12:58:51;39.20;1.00
8248;DHT22;4164;49.844;8.830;2023-06-10T13:01:16;38.20;1.00
8248;DHT22;4164;49.844;8.830;2023-06-10T13:03:42;38.40;1.00
8248;DHT22;4164;49.844;8.830;2023-06-10T13:06:07;38.80;1.00
8248;DHT22;4164;49.844;8.830;2023-06-10T13:08:33;39.60;1.00
8248;DHT22;4164;49.844;8.830;2023-06-10T13:10:58;41.10;1.00
8248;DHT22;4164;49.844;8.830;2023-06-10T13:13:24;42.60;1.00
8248;DHT22;4164;49.844;8.830;2023-06-10T13:15:51;41.40;1.00
8248;DHT22;4164;49.844;8.830;2023-06-10T13:18:17;42.20;1.00
8248;DHT22;4164;49.844;8.830;2023-06-10T13:20:44;43.40;1.00
8248;DHT22;4164;49.844;8.830;2023-06-10T13:23:09;42.40;1.00
8248;DHT22;4164;49.844;8.830;2023-06-10T13:25:35;40.40;1.00
8248;DHT22;4164;49.844;8.830;2023-06-10T13:28:01;39.40;1.00
8248;DHT22;4164;49.844;8.830;2023-06-10T13:30:26;38.90;1.00
8248;DHT22;4164;49.844;8.830;2023-06-10T13:32:52;40.20;1.00
8248;DHT22;4164;49.844;8.830;2023-06-10T13:35:18;41.10;1.00
8248;DHT22;4164;49.844;8.830;2023-06-10T13:37:43;41.60;1.00
8248;DHT22;4164;49.844;8.830;2023-06-10T13:40:09;42.50;1.00
8248;DHT22;4164;49.844;8.830;2023-06-10T13:42:35;42.40;1.00
8248;DHT22;4164;49.844;8.830;2023-06-10T13:45:02;42.20;1.00
8248;DHT22;4164;49.844;8.830;2023-06-10T13:47:28;42.80;1.00
8248;DHT22;4164;49.844;8.830;2023-06-10T13:49:53;42.50;1.00
8248;DHT22;4164;49.844;8.830;2023-06-10T13:52:19;43.80;1.00
8248;DHT22;4164;49.844;8.830;2023-06-10T13:54:44;43.90;1.00
8248;DHT22;4164;49.844;8.830;2023-06-10T13:57:10;44.40;1.00
8248;DHT22;4164;49.844;8.830;2023-06-10T13:59:36;44.10;1.00
8248;DHT22;4164;49.844;8.830;2023-06-10T14:02:01;41.90;1.00
8248;DHT22;4164;49.844;8.830;2023-06-10T14:04:27;42.40;1.00
8248;DHT22;4164;49.844;8.830;2023-06-10T14:06:52;41.00;1.00
8248;DHT22;4164;49.844;8.830;2023-06-10T14:09:18;39.70;1.00
8248;DHT22;4164;49.844;8.830;2023-06-10T14:11:44;40.70;1.00
8248;DHT22;4164;49.844;8.830;2023-06-10T14:14:10;42.10;1.00
8248;DHT22;4164;49.844;8.830;2023-06-10T14:16:35;42.20;1.00
8248;DHT22;4164;49.844;8.830;2023-06-10T14:19:01;41.10;1.00
8248;DHT22;4164;49.844;8.830;2023-06-10T14:21:27;41.80;1.00
8248;DHT22;4164;49.844;8.830;2023-06-10T14:23:52;43.30;1.00
8248;DHT22;4164;49.844;8.830;2023-06-10T14:26:19;43.10;1.00
8248;DHT22;4164;49.844;8.830;2023-06-10T14:28:45;43.60;1.00
8248;DHT22;4164;49.844;8.830;2023-06-10T14:31:11;44.10;1.00
8248;DHT22;4164;49.844;8.830;2023-06-10T14:33:36;44.10;1.00
8248;DHT22;4164;49.844;8.830;2023-06-10T14:36:02;44.10;1.00
8248;DHT22;4164;49.844;8.830;2023-06-10T14:38:28;44.30;1.00
8248;DHT22;4164;49.844;8.830;2023-06-10T14:40:53;44.80;1.00
8248;DHT22;4164;49.844;8.830;2023-06-10T14:43:19;44.00;1.00
8248;DHT22;4164;49.844;8.830;2023-06-10T14:45:44;43.60;1.00
8248;DHT22;4164;49.844;8.830;2023-06-10T14:48:10;43.30;1.00
8248;DHT22;4164;49.844;8.830;2023-06-10T14:50:37;42.50;1.00
8248;DHT22;4164;49.844;8.830;2023-06-10T14:53:03;42.20;1.00
8248;DHT22;4164;49.844;8.830;2023-06-10T14:55:28;42.00;1.00
8248;DHT22;4164;49.844;8.830;2023-06-10T14:57:54;41.10;1.00
8248;DHT22;4164;49.844;8.830;2023-06-10T15:00:20;40.30;1.00
8248;DHT22;4164;49.844;8.830;2023-06-10T15:02:48;40.40;1.00
8248;DHT22;4164;49.844;8.830;2023-06-10T15:05:14;40.10;1.00
8248;DHT22;4164;49.844;8.830;2023-06-10T15:07:41;39.90;1.00
8248;DHT22;4164;49.844;8.830;2023-06-10T15:10:07;37.80;1.00
8248;DHT22;4164;49.844;8.830;2023-06-10T15:12:33;35.60;1.00
8248;DHT22;4164;49.844;8.830;2023-06-10T15:14:59;34.70;1.00
8248;DHT22;4164;49.844;8.830;2023-06-10T15:17:25;33.60;1.00
8248;DHT22;4164;49.844;8.830;2023-06-10T15:19:50;32.90;1.00
8248;DHT22;4164;49.844;8.830;2023-06-10T15:22:16;32.60;1.00
8248;DHT22;4164;49.844;8.830;2023-06-10T15:24:42;32.50;1.00
8248;DHT22;4164;49.844;8.830;2023-06-10T15:27:08;32.60;1.00
8248;DHT22;4164;49.844;8.830;2023-06-10T15:29:33;32.40;1.00
8248;DHT22;4164;49.844;8.830;2023-06-10T15:31:59;32.40;1.00
8248;DHT22;4164;49.844;8.830;2023-06-10T15:34:24;32.20;1.00
8248;DHT22;4164;49.844;8.830;2023-06-10T15:36:50;32.10;1.00
8248;DHT22;4164;49.844;8.830;2023-06-10T15:39:15;32.00;1.00
8248;DHT22;4164;49.844;8.830;2023-06-10T15:41:41;32.00;1.00
8248;DHT22;4164;49.844;8.830;2023-06-10T15:44:06;31.90;1.00
8248;DHT22;4164;49.844;8.830;2023-06-10T15:46:32;31.90;1.00
8248;DHT22;4164;49.844;8.830;2023-06-10T15:48:59;31.80;1.00
8248;DHT22;4164;49.844;8.830;2023-06-10T15:51:25;31.90;1.00
8248;DHT22;4164;49.844;8.830;2023-06-10T15:53:51;32.00;1.00
8248;DHT22;4164;49.844;8.830;2023-06-10T15:56:16;32.10;1.00
8248;DHT22;4164;49.844;8.830;2023-06-10T15:58:42;32.10;1.00
8248;DHT22;4164;49.844;8.830;2023-06-10T16:01:07;32.30;1.00
8248;DHT22;4164;49.844;8.830;2023-06-10T16:03:35;32.20;1.00
8248;DHT22;4164;49.844;8.830;2023-06-10T16:06:03;31.90;1.00
8248;DHT22;4164;49.844;8.830;2023-06-10T16:08:29;31.70;1.00
8248;DHT22;4164;49.844;8.830;2023-06-10T16:10:55;31.40;1.00
8248;DHT22;4164;49.844;8.830;2023-06-10T16:13:20;31.10;1.00
8248;DHT22;4164;49.844;8.830;2023-06-10T16:15:46;31.00;1.00
8248;DHT22;4164;49.844;8.830;2023-06-10T16:18:11;30.80;1.00
8248;DHT22;4164;49.844;8.830;2023-06-10T16:20:37;30.30;1.00
8248;DHT22;4164;49.844;8.830;2023-06-10T16:23:03;30.20;1.00
8248;DHT22;4164;49.844;8.830;2023-06-10T16:25:29;30.20;1.00
8248;DHT22;4164;49.844;8.830;2023-06-10T16:27:55;30.30;1.00
8248;DHT22;4164;49.844;8.830;2023-06-10T16:30:21;30.50;1.00
8248;DHT22;4164;49.844;8.830;2023-06-10T16:32:46;30.70;1.00
8248;DHT22;4164;49.844;8.830;2023-06-10T16:35:12;30.80;1.00